Date,TemperatureHighF,TemperatureAvgF,TemperatureLowF,DewpointHighF,DewpointAvgF,DewpointLowF,HumidityHigh,HumidityAvg,HumidityLow,PressureMaxIn,PressureMinIn,WindSpeedMaxMPH,WindSpeedAvgMPH,GustSpeedMaxMPH,PrecipitationSumIn
2013-3-1,75.0,53.3,39.0,55.0,45.3,37.0,99,77,45,30.43,30.24,2,0,0,0.00
2013-3-2,70.0,53.7,42.0,56.0,47.2,40.0,95,80,55,30.25,30.05,3,0,0,0.00
2013-3-3,66.0,53.0,47.0,52.0,47.0,43.0,90,81,56,30.09,30.01,6,2,0,0.00
2013-3-4,58.0,47.4,39.0,47.0,42.9,36.0,93,84,68,30.15,30.06,3,1,0,0.00
2013-3-5,54.0,44.8,33.0,46.0,40.2,31.0,95,84,70,30.08,29.78,8,2,0,0.00
2013-3-6,57.0,48.7,39.0,48.0,42.0,36.0,93,79,55,30.06,29.78,8,2,0,0.00
2013-3-7,57.0,44.5,34.0,44.0,37.9,32.0,95,80,50,30.01,29.87,4,0,0,0.00
2013-3-8,67.0,47.7,33.0,47.0,39.0,31.0,99,74,35,30.03,29.84,2,0,0,0.00
2013-3-9,74.0,50.1,33.0,49.0,39.7,31.0,95,72,29,30.32,30.03,3,0,0,0.00
2013-3-10,72.0,50.0,34.0,49.0,40.4,32.0,95,74,29,30.35,30.23,5,1,0,0.00
2013-3-11,72.0,50.1,36.0,50.0,42.5,34.0,95,78,40,30.27,30.10,4,1,0,0.00
2013-3-12,73.0,51.7,40.0,56.0,45.4,38.0,95,81,49,30.17,30.06,5,1,0,0.00
2013-3-13,82.0,55.3,40.0,59.0,47.2,38.0,96,78,41,30.17,30.05,3,0,0,0.00
2013-3-14,70.0,53.8,43.0,57.0,47.3,41.0,95,80,56,30.17,30.09,4,1,0,0.00
2013-3-15,73.0,53.3,40.0,56.0,46.2,38.0,95,79,47,30.14,30.02,4,1,0,0.00
2013-3-16,76.0,55.9,38.0,55.0,42.6,34.0,95,67,22,30.12,30.01,6,1,0,0.00
2013-3-17,70.0,54.1,41.0,48.0,41.3,35.0,85,64,30,30.15,30.03,5,1,0,0.00
2013-3-18,67.0,50.3,37.0,48.0,42.0,35.0,95,76,47,30.12,30.02,4,1,0,0.00
2013-3-19,62.0,50.5,42.0,50.0,44.3,40.0,94,80,56,30.13,30.05,1,0,0,0.00
2013-3-20,60.0,51.0,45.0,56.0,48.4,43.0,95,91,80,30.14,30.06,2,0,0,0.00
2013-3-21,69.0,51.1,36.0,48.0,41.7,34.0,95,73,41,30.14,30.00,3,1,0,0.00
2013-3-22,72.0,54.0,42.0,40.0,35.5,29.0,77,54,23,30.14,30.02,3,1,0,0.00
2013-3-23,70.0,51.4,36.0,44.0,38.2,33.0,92,65,31,30.15,30.03,4,1,0,0.00
2013-3-24,70.0,50.5,37.0,51.0,42.3,35.0,95,76,42,30.09,29.96,6,1,0,0.00
2013-3-25,58.0,47.7,39.0,48.0,42.5,37.0,95,83,62,30.04,29.94,4,1,0,0.00
2013-3-26,64.0,49.7,40.0,50.0,43.8,38.0,95,81,55,30.01,29.93,4,1,0,0.00
2013-3-27,62.0,51.2,43.0,53.0,47.0,41.0,94,86,69,30.02,29.95,3,0,0,0.00
2013-3-28,65.0,54.1,47.0,55.0,50.0,45.0,95,86,70,30.09,30.01,2,0,0,0.00
2013-3-29,77.0,57.5,48.0,59.0,51.2,47.0,95,81,47,30.10,30.01,3,1,0,0.00
2013-3-30,68.0,55.5,49.0,56.0,49.5,-99.9,93,84,63,30.08,30.00,3,0,0,0.00
2013-3-31,61.0,54.8,51.0,56.0,52.4,49.0,95,92,77,30.07,30.00,2,0,0,0.00